Time;durP1;ratioP1;P1;durP2;ratioP2;P2;SDS_P1;SDS_P2;PMS_P1;PMS_P2;Temp;Humidity;BMP_temperature;BMP_pressure;BME280_temperature;BME280_humidity;BME280_pressure;Samples;Min_cycle;Max_cycle;Signal;HPM_P1;HPM_P2
2024/04/18 00:02:03;;;;;;;10.13;3.97;;;3.60;99.90;;;;;;5450458;26;20323;-72
2024/04/18 00:04:51;;;;;;;7.57;4.40;;;3.60;99.90;;;;;;5450252;26;20249;-73
2024/04/18 00:07:51;;;;;;;6.30;3.83;;;3.60;99.90;;;;;;5400024;26;20225;-73
2024/04/18 00:10:42;;;;;;;7.63;4.23;;;3.60;99.90;;;;;;5447970;26;20807;-74
2024/04/18 00:13:33;;;;;;;8.60;4.73;;;3.50;99.90;;;;;;5424253;26;20691;-73
2024/04/18 00:16:32;;;;;;;8.30;4.67;;;3.50;99.90;;;;;;5449474;26;20229;-72
2024/04/18 00:19:19;;;;;;;8.67;4.67;;;3.50;99.90;;;;;;5449286;26;20364;-73
2024/04/18 00:22:07;;;;;;;8.27;4.30;;;3.40;99.90;;;;;;5449122;26;20229;-72
2024/04/18 00:24:55;;;;;;;7.77;4.50;;;3.40;99.90;;;;;;5423732;26;20321;-73
2024/04/18 00:27:57;;;;;;;9.00;4.47;;;3.30;99.90;;;;;;5449979;26;20696;-73
2024/04/18 00:30:48;;;;;;;8.80;4.40;;;3.40;99.90;;;;;;5448842;26;20654;-73
2024/04/18 00:33:35;;;;;;;8.27;4.63;;;3.40;99.90;;;;;;5448966;26;20325;-73
2024/04/18 00:36:26;;;;;;;10.00;4.90;;;3.30;99.90;;;;;;5450743;26;20214;-73
2024/04/18 00:39:17;;;;;;;9.23;5.00;;;3.30;99.90;;;;;;5449138;26;20312;-75
2024/04/18 00:42:05;;;;;;;7.97;4.60;;;3.20;99.90;;;;;;5449116;26;20216;-75
2024/04/18 00:44:53;;;;;;;7.80;4.40;;;3.30;99.90;;;;;;5450977;26;20262;-74
2024/04/18 00:47:41;;;;;;;7.07;4.47;;;3.20;99.90;;;;;;5448620;26;20593;-75
2024/04/18 00:50:29;;;;;;;8.07;4.77;;;3.10;99.90;;;;;;5422604;26;20229;-73
2024/04/18 00:53:36;;;;;;;8.30;4.47;;;3.10;99.90;;;;;;5449503;26;20319;-73
2024/04/18 00:56:42;;;;;;;9.50;4.60;;;3.10;99.90;;;;;;5448856;26;20266;-73
2024/04/18 01:02:40;;;;;;;7.00;4.33;;;3.00;99.90;;;;;;5342106;26;20218;-73
2024/04/18 01:05:28;;;;;;;7.10;4.00;;;3.10;99.90;;;;;;5340757;26;20251;-73
2024/04/18 01:08:28;;;;;;;6.90;4.03;;;3.20;99.90;;;;;;5341040;26;20227;-73
2024/04/18 01:11:18;;;;;;;5.67;3.73;;;3.20;99.90;;;;;;5341128;26;20219;-73
2024/04/18 01:14:27;;;;;;;7.67;4.47;;;3.20;99.90;;;;;;5341925;26;20623;-72
2024/04/18 01:17:34;;;;;;;5.67;3.63;;;3.20;99.90;;;;;;5340846;26;20274;-73
2024/04/18 01:20:24;;;;;;;5.67;3.87;;;3.10;99.90;;;;;;5339833;26;20392;-73
2024/04/18 01:23:30;;;;;;;7.80;4.03;;;3.00;99.90;;;;;;5343486;26;20250;-73
2024/04/18 01:26:37;;;;;;;7.87;3.50;;;2.90;99.90;;;;;;5343352;26;20296;-73
2024/04/18 01:29:26;;;;;;;6.60;3.90;;;3.00;99.90;;;;;;5344322;26;20218;-72
2024/04/18 01:32:32;;;;;;;7.47;4.23;;;2.90;99.90;;;;;;5321389;26;20286;-73
2024/04/18 01:35:20;;;;;;;7.37;4.00;;;2.90;99.90;;;;;;5345033;26;20238;-73
2024/04/18 01:38:08;;;;;;;8.27;4.00;;;2.80;99.90;;;;;;5343005;26;20331;-73
2024/04/18 01:40:56;;;;;;;6.33;3.70;;;2.80;99.90;;;;;;5426669;26;20641;-74
2024/04/18 01:43:43;;;;;;;8.63;4.47;;;2.90;99.90;;;;;;5453540;26;20647;-74
2024/04/18 01:46:34;;;;;;;8.23;4.30;;;2.80;99.90;;;;;;5424322;26;20227;-74
2024/04/18 01:49:22;;;;;;;9.97;5.13;;;2.80;99.90;;;;;;5426681;26;20227;-73
2024/04/18 01:52:15;;;;;;;9.10;5.00;;;2.70;99.90;;;;;;5451567;26;20320;-73
2024/04/18 01:58:19;;;;;;;10.80;5.23;;;2.60;99.90;;;;;;5450775;26;20547;-73
2024/04/18 02:01:07;;;;;;;10.57;5.53;;;2.70;99.90;;;;;;5451042;26;20618;-73
2024/04/18 02:04:00;;;;;;;11.40;5.97;;;2.60;99.90;;;;;;5452244;26;20275;-73
2024/04/18 02:07:08;;;;;;;11.90;5.67;;;2.50;99.90;;;;;;5450861;26;20800;-72
2024/04/18 02:09:56;;;;;;;9.57;5.47;;;2.50;99.90;;;;;;5450862;26;20223;-73
2024/04/18 02:13:02;;;;;;;12.43;5.57;;;2.50;99.90;;;;;;5451038;26;20215;-73
2024/04/18 02:15:49;;;;;;;11.67;5.93;;;2.50;99.90;;;;;;5424941;26;20266;-72
2024/04/18 02:18:55;;;;;;;14.00;5.97;;;2.40;99.90;;;;;;5452040;26;20587;-73
2024/04/18 02:21:46;;;;;;;11.10;6.60;;;2.40;99.90;;;;;;5450905;26;20223;-73
2024/04/18 02:24:43;;;;;;;11.33;6.00;;;2.30;99.90;;;;;;5451765;26;20265;-73
2024/04/18 02:27:31;;;;;;;11.37;5.93;;;2.40;99.90;;;;;;5474061;26;20553;-74
2024/04/18 02:30:18;;;;;;;10.87;5.93;;;2.20;99.90;;;;;;5451037;26;20356;-74
2024/04/18 02:33:15;;;;;;;11.37;6.10;;;2.10;99.90;;;;;;5450331;26;20282;-73
2024/04/18 02:36:04;;;;;;;11.77;6.20;;;2.00;99.90;;;;;;5450270;26;20224;-74
2024/04/18 02:39:00;;;;;;;11.37;6.23;;;2.00;99.90;;;;;;5450867;26;20227;-72
2024/04/18 02:41:51;;;;;;;14.17;6.40;;;2.10;99.90;;;;;;5450364;26;20770;-73
2024/04/18 02:45:04;;;;;;;13.60;6.53;;;2.10;99.90;;;;;;5424701;26;20215;-73
2024/04/18 02:47:51;;;;;;;9.60;5.87;;;2.10;99.90;;;;;;5451534;26;20214;-73
2024/04/18 02:51:00;;;;;;;14.47;6.57;;;2.20;99.90;;;;;;5425668;26;20228;-72
2024/04/18 02:54:06;;;;;;;10.63;6.73;;;2.10;99.90;;;;;;5424442;26;20577;-71
2024/04/18 02:56:57;;;;;;;12.50;7.17;;;2.00;99.90;;;;;;5451204;26;20254;-71
2024/04/18 02:59:45;;;;;;;12.40;7.00;;;2.00;99.90;;;;;;5423257;26;20248;-72
2024/04/18 03:13:22;;;;;;;12.97;6.80;;;1.80;99.90;;;;;;5449328;26;20332;-73
2024/04/18 03:16:47;;;;;;;16.97;7.33;;;1.70;99.90;;;;;;5448799;26;20387;-72
2024/04/18 03:20:12;;;;;;;13.60;7.40;;;1.70;99.90;;;;;;5450159;26;20256;-73
2024/04/18 03:23:28;;;;;;;14.33;7.70;;;1.60;99.90;;;;;;5450390;26;20749;-72
2024/04/18 03:26:27;;;;;;;16.37;7.33;;;1.60;99.90;;;;;;5425010;26;20212;-72
2024/04/18 03:29:24;;;;;;;16.37;8.00;;;1.50;99.90;;;;;;5449766;26;20327;-72
2024/04/18 03:32:31;;;;;;;13.57;7.77;;;1.50;99.90;;;;;;5450847;26;20319;-72
2024/04/18 03:35:57;;;;;;;16.30;7.87;;;1.40;99.90;;;;;;5450728;26;20634;-73
2024/04/18 03:42:50;;;;;;;12.03;7.30;;;1.20;99.90;;;;;;5449752;26;20226;-73
2024/04/18 03:46:00;;;;;;;16.93;7.80;;;1.20;99.90;;;;;;5448810;26;20296;-72
2024/04/18 03:49:25;;;;;;;13.90;8.07;;;1.20;99.90;;;;;;5450027;26;20320;-72
2024/04/18 03:56:18;;;;;;;19.00;8.23;;;1.30;99.90;;;;;;5449838;26;20760;-73
2024/04/18 03:59:28;;;;;;;13.50;7.60;;;1.10;99.90;;;;;;5450342;26;20215;-72
2024/04/18 04:02:18;;;;;;;17.13;8.10;;;1.10;99.90;;;;;;5449101;26;20219;-73
2024/04/18 04:05:08;;;;;;;12.40;8.00;;;1.10;99.90;;;;;;5448638;26;20644;-72
2024/04/18 04:08:16;;;;;;;14.87;8.07;;;1.10;99.90;;;;;;5450283;26;20269;-74
2024/04/18 04:21:42;;;;;;;15.57;8.80;;;1.00;99.90;;;;;;5447782;26;20253;-73
2024/04/18 04:24:52;;;;;;;14.87;8.50;;;1.10;99.90;;;;;;5472518;26;20704;-73
2024/04/18 04:27:51;;;;;;;16.10;9.00;;;1.20;99.90;;;;;;5450188;26;20215;-72
2024/04/18 04:30:57;;;;;;;14.80;8.70;;;1.20;99.90;;;;;;5448709;26;20635;-73
2024/04/18 04:34:07;;;;;;;17.70;10.20;;;1.30;99.90;;;;;;5448961;26;20691;-73
2024/04/18 04:37:17;;;;;;;19.50;9.50;;;1.40;99.90;;;;;;5449844;26;20223;-73
2024/04/18 04:40:31;;;;;;;16.93;8.73;;;1.50;99.90;;;;;;5448751;26;20211;-73
2024/04/18 04:43:38;;;;;;;14.53;8.50;;;1.60;99.90;;;;;;5448579;26;20214;-74
2024/04/18 04:46:48;;;;;;;18.97;9.00;;;1.80;99.90;;;;;;5424199;26;20231;-73
2024/04/18 04:50:04;;;;;;;16.97;8.83;;;1.80;99.90;;;;;;5448899;26;20257;-73
2024/04/18 04:53:11;;;;;;;16.00;8.37;;;1.80;99.90;;;;;;5449108;26;20692;-74
2024/04/18 04:56:23;;;;;;;12.83;8.40;;;1.80;99.90;;;;;;5448447;26;20555;-73
2024/04/18 04:59:14;;;;;;;15.80;8.40;;;1.90;99.90;;;;;;5451589;26;20261;-73
2024/04/18 05:02:20;;;;;;;16.03;8.57;;;1.90;99.90;;;;;;5425748;26;20215;-74
2024/04/18 05:05:08;;;;;;;14.70;8.73;;;2.10;99.90;;;;;;5452203;26;20227;-74
2024/04/18 05:07:56;;;;;;;15.37;8.70;;;2.00;99.90;;;;;;5425542;26;20215;-74
2024/04/18 05:10:45;;;;;;;16.97;8.70;;;2.20;99.90;;;;;;5452107;26;20319;-73
2024/04/18 05:13:32;;;;;;;16.37;8.50;;;2.20;99.90;;;;;;5450685;26;20286;-74
2024/04/18 05:16:20;;;;;;;13.00;7.57;;;2.40;99.90;;;;;;5451241;26;20234;-73
2024/04/18 05:19:12;;;;;;;15.93;8.00;;;2.50;99.90;;;;;;5427776;26;20257;-73
2024/04/18 05:21:59;;;;;;;12.60;7.37;;;2.60;99.90;;;;;;5427480;26;20261;-73
2024/04/18 05:24:47;;;;;;;13.23;7.50;;;2.70;99.90;;;;;;5451667;26;20221;-74
2024/04/18 05:27:42;;;;;;;13.97;7.60;;;2.80;99.90;;;;;;5452503;26;20889;-74
2024/04/18 05:33:37;;;;;;;12.43;6.70;;;3.10;99.90;;;;;;5451740;26;20263;-73
2024/04/18 05:36:25;;;;;;;11.10;6.57;;;3.20;99.90;;;;;;5426402;26;20263;-73
2024/04/18 05:39:31;;;;;;;11.73;6.70;;;3.30;99.90;;;;;;5451472;26;20555;-74
2024/04/18 05:42:18;;;;;;;12.57;6.40;;;3.50;99.90;;;;;;5451611;26;20216;-74
2024/04/18 05:45:06;;;;;;;13.10;7.00;;;3.50;99.90;;;;;;5453340;26;20304;-74
2024/04/18 05:47:56;;;;;;;11.37;6.67;;;3.60;99.90;;;;;;5452664;26;20325;-74
2024/04/18 05:50:43;;;;;;;13.80;6.67;;;3.80;99.90;;;;;;5450389;26;20231;-73
2024/04/18 05:53:31;;;;;;;15.43;7.20;;;3.90;99.90;;;;;;5452188;26;20255;-74
2024/04/18 05:56:19;;;;;;;10.87;6.60;;;4.00;99.90;;;;;;5451330;26;20211;-74
2024/04/18 05:59:06;;;;;;;15.33;7.63;;;3.80;99.90;;;;;;5452249;26;20746;-74
2024/04/18 06:01:54;;;;;;;11.73;7.30;;;4.00;99.90;;;;;;5426928;26;20271;-74
2024/04/18 06:04:41;;;;;;;13.33;7.17;;;4.10;99.90;;;;;;5452129;26;20239;-74
2024/04/18 06:07:30;;;;;;;16.20;8.00;;;4.20;99.90;;;;;;5451880;26;20211;-74
2024/04/18 06:10:17;;;;;;;12.73;6.90;;;4.40;99.90;;;;;;5452054;26;20258;-73
2024/04/18 06:13:07;;;;;;;14.50;6.93;;;4.50;99.90;;;;;;5426072;26;20277;-73
2024/04/18 06:15:55;;;;;;;13.30;6.60;;;4.70;99.90;;;;;;5450197;26;20232;-74
2024/04/18 06:18:43;;;;;;;12.13;6.67;;;4.80;99.90;;;;;;5424068;26;20214;-74
2024/04/18 06:21:31;;;;;;;12.60;6.77;;;4.70;99.90;;;;;;5426569;26;20299;-75
2024/04/18 06:24:18;;;;;;;14.13;6.63;;;4.60;99.90;;;;;;5451708;26;20674;-74
2024/04/18 06:27:06;;;;;;;10.97;6.90;;;4.50;99.90;;;;;;5452694;26;20727;-74
2024/04/18 06:29:53;;;;;;;12.33;6.93;;;4.70;99.90;;;;;;5451648;26;20328;-74
2024/04/18 06:32:41;;;;;;;11.13;6.73;;;4.70;99.90;;;;;;5424814;26;20691;-74
2024/04/18 06:35:29;;;;;;;12.23;6.83;;;4.80;99.90;;;;;;5424552;26;20739;-74
2024/04/18 06:38:16;;;;;;;11.40;6.83;;;4.70;99.90;;;;;;5450721;26;20325;-74
2024/04/18 06:41:07;;;;;;;11.87;6.57;;;4.80;99.90;;;;;;5450257;26;20297;-74
2024/04/18 06:43:55;;;;;;;9.03;6.50;;;4.80;99.90;;;;;;5450616;26;20211;-74
2024/04/18 06:46:42;;;;;;;10.97;7.07;;;4.80;99.90;;;;;;5425287;26;20262;-74
2024/04/18 06:49:46;;;;;;;12.13;6.33;;;4.80;99.90;;;;;;5429633;26;20288;-74
2024/04/18 06:52:33;;;;;;;12.43;6.40;;;4.90;99.90;;;;;;5450387;26;20692;-74
2024/04/18 06:55:24;;;;;;;11.53;6.57;;;4.90;99.90;;;;;;5450068;26;20284;-74
2024/04/18 06:58:12;;;;;;;10.83;6.27;;;5.10;99.90;;;;;;5451210;26;20215;-74
2024/04/18 07:01:04;;;;;;;9.30;6.33;;;5.50;99.90;;;;;;5449732;26;20226;-74
2024/04/18 07:03:52;;;;;;;10.67;6.47;;;5.80;99.90;;;;;;5450757;26;20212;-74
2024/04/18 07:06:40;;;;;;;8.67;5.60;;;6.00;99.90;;;;;;5449694;26;20278;-74
2024/04/18 07:09:27;;;;;;;12.23;6.13;;;6.00;99.90;;;;;;5450072;26;20258;-74
2024/04/18 07:12:15;;;;;;;9.13;5.67;;;6.30;99.90;;;;;;5452046;26;20215;-74
2024/04/18 07:15:02;;;;;;;9.70;6.30;;;6.70;99.90;;;;;;5425286;26;20229;-74
2024/04/18 07:17:54;;;;;;;11.07;5.63;;;6.60;99.90;;;;;;5448820;26;20224;-74
2024/04/18 07:20:42;;;;;;;8.70;5.47;;;6.20;99.90;;;;;;5421677;26;20235;-74
2024/04/18 07:23:30;;;;;;;8.80;5.03;;;6.10;99.90;;;;;;5424730;26;20267;-74
2024/04/18 07:26:18;;;;;;;7.70;5.17;;;5.70;99.90;;;;;;5450120;26;20753;-74
2024/04/18 07:29:05;;;;;;;8.10;5.33;;;5.90;99.90;;;;;;5453012;26;20216;-74
2024/04/18 07:31:53;;;;;;;7.80;5.30;;;6.30;99.90;;;;;;5450721;26;20935;-74
2024/04/18 07:34:40;;;;;;;8.03;4.80;;;6.70;99.90;;;;;;5449963;26;20252;-74
2024/04/18 07:37:28;;;;;;;7.47;4.70;;;6.50;99.90;;;;;;5450514;26;20258;-74
2024/04/18 07:40:21;;;;;;;8.20;5.20;;;6.40;99.90;;;;;;5449454;26;20301;-74
2024/04/18 07:43:08;;;;;;;9.67;5.53;;;6.30;99.90;;;;;;5450682;26;20217;-75
2024/04/18 07:45:56;;;;;;;10.30;6.03;;;6.40;99.90;;;;;;5449752;26;20261;-74
2024/04/18 07:48:44;;;;;;;12.67;6.27;;;5.90;99.90;;;;;;5424444;26;20218;-74
2024/04/18 07:51:32;;;;;;;10.30;6.20;;;6.30;99.90;;;;;;5449929;26;20217;-74
2024/04/18 07:54:20;;;;;;;9.97;5.90;;;6.70;99.90;;;;;;5449790;26;20269;-74
2024/04/18 07:57:07;;;;;;;8.40;5.93;;;6.40;99.90;;;;;;5449546;26;20254;-74
2024/04/18 07:59:56;;;;;;;10.97;6.20;;;6.70;99.90;;;;;;5450878;26;20215;-74
2024/04/18 08:02:45;;;;;;;9.07;5.27;;;6.70;99.90;;;;;;5448943;26;20225;-75
2024/04/18 08:05:35;;;;;;;6.70;4.47;;;6.80;99.90;;;;;;5448276;26;20230;-74
2024/04/18 08:08:27;;;;;;;6.40;4.60;;;6.70;99.90;;;;;;5424589;26;20224;-74
2024/04/18 08:11:18;;;;;;;11.37;4.80;;;7.00;99.90;;;;;;5450532;26;20225;-74
2024/04/18 08:14:25;;;;;;;6.00;4.30;;;7.00;99.90;;;;;;5450201;26;20802;-74
2024/04/18 08:17:19;;;;;;;6.07;4.37;;;6.80;99.90;;;;;;5450796;26;20239;-74
2024/04/18 08:20:07;;;;;;;6.07;4.30;;;6.70;99.90;;;;;;5398369;26;20239;-74
2024/04/18 08:22:55;;;;;;;7.67;3.90;;;7.20;99.90;;;;;;5448799;26;20218;-74
2024/04/18 08:25:43;;;;;;;7.47;4.33;;;7.30;99.90;;;;;;5449502;26;20288;-74
2024/04/18 08:28:31;;;;;;;6.50;4.00;;;7.00;99.90;;;;;;5423687;26;20282;-74
2024/04/18 08:31:19;;;;;;;5.60;4.03;;;6.90;99.90;;;;;;5448617;26;20257;-74
2024/04/18 08:34:07;;;;;;;5.83;3.87;;;6.90;99.90;;;;;;5422904;26;20273;-75
2024/04/18 08:37:04;;;;;;;5.97;4.13;;;6.90;99.90;;;;;;5449801;26;20216;-74
2024/04/18 08:39:51;;;;;;;6.30;3.67;;;6.80;99.90;;;;;;5424208;26;20261;-74
2024/04/18 08:42:39;;;;;;;5.27;3.53;;;6.90;99.90;;;;;;5449960;26;20285;-74
2024/04/18 08:45:33;;;;;;;5.13;3.10;;;6.90;99.90;;;;;;5449640;26;20218;-74
2024/04/18 08:48:24;;;;;;;6.57;3.50;;;7.10;99.90;;;;;;5449010;26;20279;-74
2024/04/18 08:51:14;;;;;;;5.67;3.60;;;6.70;99.90;;;;;;5450812;26;20768;-74
2024/04/18 08:54:02;;;;;;;6.90;4.03;;;6.20;99.90;;;;;;5449731;26;20258;-74
2024/04/18 08:56:52;;;;;;;6.00;4.00;;;5.90;99.90;;;;;;5449504;26;20261;-74
2024/04/18 08:59:42;;;;;;;5.60;3.93;;;5.80;99.90;;;;;;5422015;26;20324;-74
2024/04/18 09:02:31;;;;;;;6.50;4.00;;;5.90;99.90;;;;;;5448101;26;20263;-75
2024/04/18 09:05:18;;;;;;;5.43;3.90;;;5.90;99.90;;;;;;5449290;26;20397;-74
2024/04/18 09:08:09;;;;;;;5.70;3.67;;;6.00;99.90;;;;;;5422686;26;20325;-74
2024/04/18 09:10:58;;;;;;;5.33;3.20;;;6.00;99.90;;;;;;5448673;26;20683;-74
2024/04/18 09:13:47;;;;;;;6.20;3.23;;;5.90;99.90;;;;;;5449195;26;20283;-74
2024/04/18 09:16:34;;;;;;;4.90;3.27;;;5.90;99.90;;;;;;5447977;26;20234;-74
2024/04/18 09:19:22;;;;;;;4.47;3.10;;;6.20;99.90;;;;;;5422180;26;20237;-74
2024/04/18 09:22:11;;;;;;;4.40;2.70;;;7.20;99.90;;;;;;5448013;26;20222;-74
2024/04/18 09:24:58;;;;;;;4.57;3.07;;;8.10;99.90;;;;;;5448043;26;20224;-74
2024/04/18 09:27:47;;;;;;;5.17;2.77;;;8.70;99.90;;;;;;5423450;26;20226;-74
2024/04/18 09:30:39;;;;;;;3.50;2.90;;;8.70;99.90;;;;;;5449027;26;20262;-74
2024/04/18 09:33:27;;;;;;;5.57;3.00;;;9.30;99.90;;;;;;5448289;26;20257;-74
2024/04/18 09:36:19;;;;;;;3.57;3.00;;;9.50;99.90;;;;;;5422499;26;20216;-74
2024/04/18 09:39:19;;;;;;;3.90;2.80;;;9.70;99.90;;;;;;5448130;26;20265;-74
2024/04/18 09:42:36;;;;;;;6.57;2.67;;;9.30;99.90;;;;;;5425673;26;20218;-74
2024/04/18 09:45:32;;;;;;;4.33;2.90;;;9.10;99.90;;;;;;5451195;26;20227;-74
2024/04/18 09:48:20;;;;;;;5.97;3.20;;;9.10;99.90;;;;;;5453438;26;20211;-74
2024/04/18 09:51:09;;;;;;;4.30;2.73;;;8.40;99.90;;;;;;5451274;26;20254;-74
2024/04/18 09:53:57;;;;;;;3.97;2.73;;;8.60;99.90;;;;;;5427193;26;20265;-74
2024/04/18 09:56:47;;;;;;;5.30;2.80;;;9.00;99.90;;;;;;5452894;26;20319;-75
2024/04/18 09:59:37;;;;;;;6.13;3.27;;;9.40;99.90;;;;;;5451500;26;20227;-74
2024/04/18 10:02:28;;;;;;;7.57;3.50;;;9.60;99.90;;;;;;5449754;26;20561;-75
2024/04/18 10:05:16;;;;;;;4.63;2.60;;;9.90;99.90;;;;;;5451979;26;20273;-74
2024/04/18 10:08:05;;;;;;;3.37;2.40;;;10.10;99.90;;;;;;5450877;26;20759;-74
2024/04/18 10:10:54;;;;;;;3.23;2.50;;;10.50;99.90;;;;;;5424280;26;20323;-74
2024/04/18 10:13:45;;;;;;;4.30;2.30;;;10.40;99.90;;;;;;5475179;26;20211;-75
2024/04/18 10:16:44;;;;;;;3.37;2.43;;;10.50;99.90;;;;;;5451121;26;20232;-74
2024/04/18 10:19:32;;;;;;;3.63;2.37;;;11.00;99.90;;;;;;5452154;26;20519;-74
2024/04/18 10:22:23;;;;;;;2.90;2.30;;;12.10;99.90;;;;;;5450776;26;20258;-74
2024/04/18 10:25:19;;;;;;;4.07;2.90;;;12.10;99.90;;;;;;5451612;26;20262;-74
2024/04/18 10:28:20;;;;;;;4.97;2.80;;;11.80;99.90;;;;;;5425708;26;20305;-75
2024/04/18 10:31:08;;;;;;;4.43;2.80;;;12.50;99.90;;;;;;5450627;26;20217;-75
2024/04/18 10:33:57;;;;;;;3.13;2.57;;;13.50;99.90;;;;;;5451398;26;20567;-74
2024/04/18 10:36:46;;;;;;;3.97;2.97;;;13.50;99.90;;;;;;5425344;26;20215;-74
2024/04/18 10:39:40;;;;;;;3.77;2.80;;;12.30;99.90;;;;;;5423904;26;20732;-75
2024/04/18 10:42:32;;;;;;;4.63;2.50;;;12.00;99.90;;;;;;5451910;26;20283;-74
2024/04/18 10:45:21;;;;;;;4.00;2.73;;;11.30;99.90;;;;;;5451469;26;20211;-74
2024/04/18 10:48:08;;;;;;;5.87;3.20;;;10.30;99.90;;;;;;5424239;26;20258;-73
2024/04/18 10:50:56;;;;;;;4.93;3.10;;;10.00;99.90;;;;;;5449153;26;20239;-73
2024/04/18 10:53:44;;;;;;;5.43;3.00;;;9.80;99.90;;;;;;5450903;26;20224;-73
2024/04/18 10:59:57;;;;;;;4.00;2.50;;;8.90;99.90;;;;;;5449916;26;20211;-74
2024/04/18 11:02:44;;;;;;;3.73;2.60;;;8.80;99.90;;;;;;5426341;26;20762;-74
2024/04/18 11:05:32;;;;;;;4.30;3.00;;;9.40;99.90;;;;;;5450058;26;20807;-74
2024/04/18 11:08:19;;;;;;;4.57;2.87;;;9.60;99.90;;;;;;5450478;26;20323;-74
2024/04/18 11:11:07;;;;;;;4.67;3.37;;;9.80;99.90;;;;;;5452170;26;20212;-74
2024/04/18 11:13:56;;;;;;;4.10;2.80;;;9.60;99.90;;;;;;5452100;26;20275;-74
2024/04/18 11:16:44;;;;;;;4.90;2.70;;;9.30;99.90;;;;;;5450216;26;20232;-74
2024/04/18 11:19:32;;;;;;;5.63;3.20;;;9.30;99.90;;;;;;5425365;26;20228;-74
2024/04/18 11:22:21;;;;;;;3.07;2.00;;;9.60;99.90;;;;;;5449295;26;20215;-74
2024/04/18 11:25:09;;;;;;;3.60;2.50;;;10.00;99.90;;;;;;5449083;26;20258;-74
2024/04/18 11:28:15;;;;;;;4.00;2.60;;;9.50;99.90;;;;;;5424865;26;20699;-74
2024/04/18 11:31:05;;;;;;;3.40;2.50;;;9.70;99.90;;;;;;5449204;26;20215;-74
2024/04/18 11:34:12;;;;;;;2.90;2.30;;;10.10;99.90;;;;;;5450240;26;20215;-74
2024/04/18 11:37:25;;;;;;;3.03;2.30;;;11.40;99.90;;;;;;5451003;26;20261;-74
2024/04/18 11:40:14;;;;;;;3.57;2.40;;;12.50;99.90;;;;;;5450831;26;20646;-74
2024/04/18 11:43:05;;;;;;;4.30;2.40;;;11.90;99.90;;;;;;5451980;26;20308;-74
2024/04/18 11:45:53;;;;;;;3.93;2.47;;;12.00;99.90;;;;;;5449895;26;20741;-74
2024/04/18 11:48:40;;;;;;;2.90;2.10;;;12.00;99.90;;;;;;5449718;26;21211;-74
2024/04/18 11:51:34;;;;;;;3.47;2.27;;;11.30;99.90;;;;;;5424455;26;20719;-74
2024/04/18 11:54:22;;;;;;;3.27;2.20;;;11.50;99.90;;;;;;5424390;26;20299;-75
2024/04/18 11:57:10;;;;;;;3.67;2.33;;;12.10;99.90;;;;;;5452615;26;20308;-74
2024/04/18 11:59:58;;;;;;;2.73;2.20;;;11.30;99.90;;;;;;5425148;26;20316;-73
2024/04/18 12:02:45;;;;;;;3.77;2.80;;;11.60;99.90;;;;;;5449676;26;20683;-75
2024/04/18 12:05:33;;;;;;;3.40;2.60;;;11.60;99.90;;;;;;5448976;26;20273;-74
2024/04/18 12:08:21;;;;;;;3.37;2.70;;;11.60;99.90;;;;;;5449861;26;20208;-75
2024/04/18 12:11:09;;;;;;;3.20;2.40;;;11.20;99.90;;;;;;5424659;26;20275;-75
2024/04/18 12:13:56;;;;;;;3.83;2.60;;;10.90;99.90;;;;;;5448278;26;20215;-74
2024/04/18 12:16:44;;;;;;;2.80;2.30;;;10.00;99.90;;;;;;5449401;26;20227;-75
2024/04/18 12:20:06;;;;;;;4.13;2.37;;;10.00;99.90;;;;;;5423009;26;20770;-75
2024/04/18 12:22:54;;;;;;;3.53;2.40;;;10.10;99.90;;;;;;5449488;26;20258;-74
2024/04/18 12:25:41;;;;;;;2.73;2.30;;;9.90;99.90;;;;;;5450067;26;20215;-74
2024/04/18 12:28:31;;;;;;;3.37;2.07;;;9.80;99.90;;;;;;5425971;26;20212;-75
2024/04/18 12:31:19;;;;;;;4.10;2.10;;;10.50;99.90;;;;;;5448673;26;20738;-75
2024/04/18 12:34:15;;;;;;;2.67;2.13;;;10.80;99.90;;;;;;5449068;26;20731;-75
2024/04/18 12:37:03;;;;;;;4.20;2.70;;;11.50;99.90;;;;;;5448650;26;20769;-75
2024/04/18 12:39:51;;;;;;;3.50;2.40;;;11.60;99.90;;;;;;5471485;26;20215;-74
2024/04/18 12:42:42;;;;;;;4.13;2.90;;;10.80;99.90;;;;;;5449340;26;20323;-74
2024/04/18 12:45:30;;;;;;;3.13;2.30;;;10.00;99.90;;;;;;5449090;26;20243;-74
2024/04/18 12:48:17;;;;;;;2.63;1.90;;;9.70;99.90;;;;;;5449767;26;20691;-73
2024/04/18 12:51:11;;;;;;;2.40;2.00;;;9.30;99.90;;;;;;5447470;26;20569;-73
2024/04/18 12:54:07;;;;;;;2.47;1.80;;;9.30;99.90;;;;;;5449754;26;20227;-74
2024/04/18 12:57:06;;;;;;;2.90;2.00;;;9.40;99.90;;;;;;5449502;26;20219;-74
2024/04/18 13:00:16;;;;;;;3.13;2.20;;;9.40;99.90;;;;;;5447804;26;20321;-74
2024/04/18 13:03:24;;;;;;;3.83;2.60;;;9.50;99.90;;;;;;5422458;26;20253;-75
2024/04/18 13:06:13;;;;;;;6.03;2.60;;;9.60;99.90;;;;;;5449209;26;20215;-74
2024/04/18 13:13:00;;;;;;;5.30;2.40;;;9.00;99.90;;;;;;5449180;26;20261;-75
2024/04/18 13:16:06;;;;;;;4.90;2.30;;;8.90;99.90;;;;;;5447156;26;20294;-75
2024/04/18 13:18:59;;;;;;;4.50;2.20;;;8.40;99.90;;;;;;5424637;26;20561;-75
2024/04/18 13:21:50;;;;;;;6.77;2.20;;;8.40;99.90;;;;;;5452205;26;20218;-74
2024/04/18 13:24:37;;;;;;;4.17;2.47;;;8.40;99.90;;;;;;5451682;26;20324;-75
2024/04/18 13:27:56;;;;;;;6.13;2.03;;;8.60;99.90;;;;;;5427645;26;20270;-75
2024/04/18 13:31:24;;;;;;;3.20;1.87;;;8.90;99.90;;;;;;5450366;26;20215;-74
2024/04/18 13:34:29;;;;;;;2.87;1.50;;;9.10;99.90;;;;;;5451714;26;20756;-75
2024/04/18 13:37:17;;;;;;;2.63;1.70;;;9.40;99.90;;;;;;5451220;26;20729;-75
2024/04/18 13:40:24;;;;;;;2.67;1.60;;;9.70;99.90;;;;;;5452342;26;20283;-75
2024/04/18 13:43:26;;;;;;;3.37;1.60;;;9.80;99.90;;;;;;5426482;26;20570;-74
2024/04/18 13:46:14;;;;;;;4.13;1.67;;;9.90;99.90;;;;;;5450334;26;20261;-75
2024/04/18 13:49:21;;;;;;;3.33;1.63;;;9.60;99.90;;;;;;5427309;26;20215;-74
2024/04/18 13:52:27;;;;;;;2.33;1.20;;;9.80;99.90;;;;;;5451637;26;20228;-75
2024/04/18 13:55:52;;;;;;;2.43;1.30;;;11.10;99.90;;;;;;5453195;26;20611;-75
2024/04/18 13:59:13;;;;;;;1.80;1.10;;;12.30;99.90;;;;;;5450576;26;20219;-75
2024/04/18 14:02:16;;;;;;;2.13;1.00;;;12.20;99.90;;;;;;5451459;26;20630;-74
2024/04/18 14:05:26;;;;;;;2.57;1.00;;;12.20;99.90;;;;;;5449962;26;20707;-75
2024/04/18 14:08:16;;;;;;;1.60;0.80;;;13.40;99.90;;;;;;5425893;26;20215;-75
2024/04/18 14:11:33;;;;;;;0.80;0.80;;;12.90;99.90;;;;;;5450328;26;20289;-75
2024/04/18 14:14:24;;;;;;;2.23;0.97;;;14.10;99.90;;;;;;5425511;26;20322;-75
2024/04/18 14:21:22;;;;;;;1.10;0.70;;;13.30;99.90;;;;;;5449501;26;20231;-76
2024/04/18 14:27:38;;;;;;;2.70;1.00;;;13.40;99.90;;;;;;5450158;26;20216;-76
2024/04/18 14:30:40;;;;;;;2.67;1.00;;;13.80;99.90;;;;;;5449294;26;20264;-76
2024/04/18 14:33:28;;;;;;;2.43;1.00;;;13.30;99.90;;;;;;5451701;26;20285;-76
2024/04/18 14:36:15;;;;;;;2.80;1.07;;;12.20;99.90;;;;;;5450522;26;20258;-76
2024/04/18 14:39:06;;;;;;;2.77;1.20;;;11.00;99.90;;;;;;5425718;26;20262;-75
2024/04/18 14:41:53;;;;;;;1.13;0.93;;;10.10;99.90;;;;;;5450728;26;20216;-75
2024/04/18 14:44:47;;;;;;;4.30;1.20;;;9.90;99.90;;;;;;5450143;26;20890;-75
2024/04/18 14:47:41;;;;;;;1.50;0.97;;;10.20;99.90;;;;;;5451215;26;20589;-75
2024/04/18 14:50:31;;;;;;;3.77;1.20;;;10.30;99.90;;;;;;5450197;26;20339;-75
2024/04/18 14:53:25;;;;;;;3.13;1.80;;;10.00;99.90;;;;;;5450573;26;20215;-75
2024/04/18 14:56:13;;;;;;;4.10;1.30;;;9.90;99.90;;;;;;5425301;26;20216;-75
2024/04/18 14:59:01;;;;;;;1.80;1.13;;;10.20;99.90;;;;;;5450368;26;20632;-75
2024/04/18 15:01:48;;;;;;;4.40;1.50;;;10.40;99.90;;;;;;5450143;26;20258;-75
2024/04/18 15:04:54;;;;;;;2.67;1.33;;;10.50;99.90;;;;;;5450114;26;20274;-75
2024/04/18 15:14:39;;;;;;;1.97;1.50;;;9.60;99.90;;;;;;5449423;26;20215;-76
2024/04/18 15:17:30;;;;;;;2.10;1.50;;;9.50;99.90;;;;;;5450162;26;20263;-76
2024/04/18 15:20:18;;;;;;;2.23;1.23;;;9.20;99.90;;;;;;5452897;26;20279;-75
2024/04/18 15:23:06;;;;;;;1.87;1.30;;;9.20;99.90;;;;;;5424938;26;20215;-75
2024/04/18 15:25:53;;;;;;;2.07;1.50;;;9.20;99.90;;;;;;5450976;26;20228;-75
2024/04/18 15:28:53;;;;;;;1.87;1.20;;;9.00;99.90;;;;;;5425105;26;20218;-75
2024/04/18 15:31:59;;;;;;;2.20;1.50;;;8.60;99.90;;;;;;5448925;26;20255;-75
2024/04/18 15:34:47;;;;;;;2.43;1.40;;;8.60;99.90;;;;;;5449586;26;20230;-75
2024/04/18 15:37:50;;;;;;;1.67;1.30;;;8.40;99.90;;;;;;5450671;26;20261;-75
2024/04/18 15:40:37;;;;;;;1.87;1.47;;;8.50;99.90;;;;;;5422557;26;20218;-74
2024/04/18 15:43:28;;;;;;;2.30;1.47;;;8.20;99.90;;;;;;5449887;26;20211;-75
2024/04/18 15:46:18;;;;;;;18.07;13.23;;;8.10;99.90;;;;;;5449391;26;20270;-77
2024/04/18 15:49:06;;;;;;;22.07;12.63;;;8.00;99.90;;;;;;5423446;26;20235;-78
2024/04/18 15:51:53;;;;;;;2.43;1.90;;;7.90;99.90;;;;;;5449447;26;20227;-73
2024/04/18 15:54:41;;;;;;;2.03;1.60;;;7.90;99.90;;;;;;5450478;26;20215;-73
2024/04/18 15:57:47;;;;;;;3.03;1.97;;;7.60;99.90;;;;;;5449224;26;20271;-73
2024/04/18 16:00:57;;;;;;;6.13;1.93;;;7.40;99.90;;;;;;5448783;26;20784;-73
2024/04/18 16:03:50;;;;;;;3.07;2.00;;;7.20;99.90;;;;;;5424400;26;20218;-73
2024/04/18 16:06:56;;;;;;;2.83;1.80;;;7.20;99.90;;;;;;5450316;26;20265;-72
2024/04/18 16:10:21;;;;;;;3.10;2.27;;;7.20;99.90;;;;;;5423332;26;20217;-74
2024/04/18 16:13:49;;;;;;;3.37;2.17;;;7.30;99.90;;;;;;5450373;26;20288;-74